Terminal Aerodrome Forecast
Issued by NWS

Home | Current Version | Previous Version | Text Only | Print | Product List | Glossary On
Versions: 1 2 3 4 5 6 7 8 9 10 11 12 13 14 15 16 17 18 19
000
FTUS44 KBMX 291200 AAA
TAFMGM
TAF AMD
KMGM 291239Z 2913/3012 VRB04KT P6SM BKN007
     FM292100 33004KT P6SM OVC015
     FM300200 34003KT P6SM OVC007=

USA.gov is the U.S. government's official web portal to all federal, state and local government web resources and services.